sensor_id;sensor_type;location;lat;lon;timestamp;P1;durP1;ratioP1;P2;durP2;ratioP2
727;SDS011;347;48.780;9.158;2023-04-28T00:00:26;12.93;;;11.93;;
727;SDS011;347;48.780;9.158;2023-04-28T00:02:52;11.77;;;10.90;;
727;SDS011;347;48.780;9.158;2023-04-28T00:05:18;12.43;;;11.53;;
727;SDS011;347;48.780;9.158;2023-04-28T00:07:44;12.50;;;11.70;;
727;SDS011;347;48.780;9.158;2023-04-28T00:10:10;12.90;;;11.87;;
727;SDS011;347;48.780;9.158;2023-04-28T00:12:36;12.37;;;11.47;;
727;SDS011;347;48.780;9.158;2023-04-28T00:15:02;11.80;;;11.10;;
727;SDS011;347;48.780;9.158;2023-04-28T00:17:28;12.83;;;12.00;;
727;SDS011;347;48.780;9.158;2023-04-28T00:19:53;12.83;;;11.83;;
727;SDS011;347;48.780;9.158;2023-04-28T00:22:19;13.50;;;12.50;;
727;SDS011;347;48.780;9.158;2023-04-28T00:24:45;12.83;;;12.13;;
727;SDS011;347;48.780;9.158;2023-04-28T00:27:11;11.80;;;10.73;;
727;SDS011;347;48.780;9.158;2023-04-28T00:29:37;13.03;;;12.23;;
727;SDS011;347;48.780;9.158;2023-04-28T00:32:02;13.63;;;12.70;;
727;SDS011;347;48.780;9.158;2023-04-28T00:34:31;13.27;;;12.37;;
727;SDS011;347;48.780;9.158;2023-04-28T00:36:57;14.07;;;13.07;;
727;SDS011;347;48.780;9.158;2023-04-28T00:39:22;12.77;;;11.83;;
727;SDS011;347;48.780;9.158;2023-04-28T00:41:49;12.77;;;11.97;;
727;SDS011;347;48.780;9.158;2023-04-28T00:44:15;13.30;;;12.30;;
727;SDS011;347;48.780;9.158;2023-04-28T00:46:41;12.87;;;11.87;;
727;SDS011;347;48.780;9.158;2023-04-28T00:49:06;12.03;;;11.23;;
727;SDS011;347;48.780;9.158;2023-04-28T00:51:32;13.17;;;12.27;;
727;SDS011;347;48.780;9.158;2023-04-28T00:53:58;17.03;;;11.30;;
727;SDS011;347;48.780;9.158;2023-04-28T00:56:24;12.30;;;11.57;;
727;SDS011;347;48.780;9.158;2023-04-28T00:58:51;11.20;;;10.50;;
727;SDS011;347;48.780;9.158;2023-04-28T01:01:17;13.17;;;11.97;;
727;SDS011;347;48.780;9.158;2023-04-28T01:03:43;12.03;;;11.40;;
727;SDS011;347;48.780;9.158;2023-04-28T01:06:09;12.00;;;11.00;;
727;SDS011;347;48.780;9.158;2023-04-28T01:08:35;12.07;;;11.27;;
727;SDS011;347;48.780;9.158;2023-04-28T01:11:02;13.00;;;12.10;;
727;SDS011;347;48.780;9.158;2023-04-28T01:13:28;11.80;;;11.10;;
727;SDS011;347;48.780;9.158;2023-04-28T01:15:54;12.70;;;11.60;;
727;SDS011;347;48.780;9.158;2023-04-28T01:18:20;11.40;;;10.80;;
727;SDS011;347;48.780;9.158;2023-04-28T01:20:46;12.43;;;11.67;;
727;SDS011;347;48.780;9.158;2023-04-28T01:23:13;12.03;;;11.13;;
727;SDS011;347;48.780;9.158;2023-04-28T01:25:40;12.70;;;12.00;;
727;SDS011;347;48.780;9.158;2023-04-28T01:28:06;12.70;;;12.00;;
727;SDS011;347;48.780;9.158;2023-04-28T01:30:33;11.50;;;10.90;;
727;SDS011;347;48.780;9.158;2023-04-28T01:32:59;12.13;;;11.20;;
727;SDS011;347;48.780;9.158;2023-04-28T01:35:25;11.43;;;10.80;;
727;SDS011;347;48.780;9.158;2023-04-28T01:37:51;13.27;;;12.40;;
727;SDS011;347;48.780;9.158;2023-04-28T01:40:17;11.70;;;10.80;;
727;SDS011;347;48.780;9.158;2023-04-28T01:42:43;12.07;;;11.30;;
727;SDS011;347;48.780;9.158;2023-04-28T01:45:08;11.93;;;11.33;;
727;SDS011;347;48.780;9.158;2023-04-28T01:47:34;12.93;;;12.03;;
727;SDS011;347;48.780;9.158;2023-04-28T01:50:00;12.63;;;11.90;;
727;SDS011;347;48.780;9.158;2023-04-28T01:52:26;12.77;;;11.80;;
727;SDS011;347;48.780;9.158;2023-04-28T01:54:52;12.97;;;12.17;;
727;SDS011;347;48.780;9.158;2023-04-28T01:57:18;12.47;;;11.47;;
727;SDS011;347;48.780;9.158;2023-04-28T01:59:44;12.10;;;11.37;;
727;SDS011;347;48.780;9.158;2023-04-28T02:02:10;13.77;;;12.60;;
727;SDS011;347;48.780;9.158;2023-04-28T02:04:39;13.03;;;12.00;;
727;SDS011;347;48.780;9.158;2023-04-28T02:07:05;12.50;;;11.70;;
727;SDS011;347;48.780;9.158;2023-04-28T02:09:31;11.77;;;10.93;;
727;SDS011;347;48.780;9.158;2023-04-28T02:11:57;13.10;;;11.67;;
727;SDS011;347;48.780;9.158;2023-04-28T02:14:24;12.57;;;11.77;;
727;SDS011;347;48.780;9.158;2023-04-28T02:16:50;12.03;;;11.17;;
727;SDS011;347;48.780;9.158;2023-04-28T02:19:15;11.23;;;10.53;;
727;SDS011;347;48.780;9.158;2023-04-28T02:21:41;11.27;;;10.40;;
727;SDS011;347;48.780;9.158;2023-04-28T02:24:07;11.80;;;10.73;;
727;SDS011;347;48.780;9.158;2023-04-28T02:26:33;12.37;;;11.67;;
727;SDS011;347;48.780;9.158;2023-04-28T02:28:59;10.63;;;10.03;;
727;SDS011;347;48.780;9.158;2023-04-28T02:31:25;10.93;;;10.40;;
727;SDS011;347;48.780;9.158;2023-04-28T02:33:51;11.30;;;10.60;;
727;SDS011;347;48.780;9.158;2023-04-28T02:36:17;9.67;;;9.17;;
727;SDS011;347;48.780;9.158;2023-04-28T02:38:42;10.30;;;9.90;;
727;SDS011;347;48.780;9.158;2023-04-28T02:41:09;10.60;;;10.10;;
727;SDS011;347;48.780;9.158;2023-04-28T02:43:35;10.07;;;9.67;;
727;SDS011;347;48.780;9.158;2023-04-28T02:46:02;10.60;;;10.00;;
727;SDS011;347;48.780;9.158;2023-04-28T02:48:28;10.23;;;9.63;;
727;SDS011;347;48.780;9.158;2023-04-28T02:50:54;10.27;;;9.40;;
727;SDS011;347;48.780;9.158;2023-04-28T02:53:19;11.47;;;10.87;;
727;SDS011;347;48.780;9.158;2023-04-28T02:55:46;10.83;;;10.17;;
727;SDS011;347;48.780;9.158;2023-04-28T02:58:12;10.07;;;9.67;;
727;SDS011;347;48.780;9.158;2023-04-28T03:00:37;10.90;;;10.30;;
727;SDS011;347;48.780;9.158;2023-04-28T03:03:03;10.90;;;10.30;;
727;SDS011;347;48.780;9.158;2023-04-28T03:05:28;11.43;;;10.80;;
727;SDS011;347;48.780;9.158;2023-04-28T03:07:54;10.60;;;10.20;;
727;SDS011;347;48.780;9.158;2023-04-28T03:10:20;10.10;;;9.70;;
727;SDS011;347;48.780;9.158;2023-04-28T03:12:46;9.43;;;9.03;;
727;SDS011;347;48.780;9.158;2023-04-28T03:15:11;10.50;;;10.00;;
727;SDS011;347;48.780;9.158;2023-04-28T03:17:37;10.70;;;10.30;;
727;SDS011;347;48.780;9.158;2023-04-28T03:20:05;10.30;;;9.80;;
727;SDS011;347;48.780;9.158;2023-04-28T03:22:32;11.87;;;11.27;;
727;SDS011;347;48.780;9.158;2023-04-28T03:24:58;10.53;;;10.03;;
727;SDS011;347;48.780;9.158;2023-04-28T03:27:24;11.40;;;10.90;;
727;SDS011;347;48.780;9.158;2023-04-28T03:29:50;10.20;;;9.73;;
727;SDS011;347;48.780;9.158;2023-04-28T03:32:16;11.10;;;10.50;;
727;SDS011;347;48.780;9.158;2023-04-28T03:34:41;11.20;;;10.70;;
727;SDS011;347;48.780;9.158;2023-04-28T03:37:07;10.50;;;9.90;;
727;SDS011;347;48.780;9.158;2023-04-28T03:39:33;11.70;;;11.00;;
727;SDS011;347;48.780;9.158;2023-04-28T03:41:58;11.10;;;10.50;;
727;SDS011;347;48.780;9.158;2023-04-28T03:44:25;11.00;;;10.60;;
727;SDS011;347;48.780;9.158;2023-04-28T03:46:50;10.70;;;10.30;;
727;SDS011;347;48.780;9.158;2023-04-28T03:49:16;10.90;;;10.40;;
727;SDS011;347;48.780;9.158;2023-04-28T03:51:41;10.63;;;10.13;;
727;SDS011;347;48.780;9.158;2023-04-28T03:54:07;12.03;;;11.50;;
727;SDS011;347;48.780;9.158;2023-04-28T03:56:33;12.90;;;12.10;;
727;SDS011;347;48.780;9.158;2023-04-28T03:58:59;11.37;;;10.80;;
727;SDS011;347;48.780;9.158;2023-04-28T04:01:25;10.70;;;10.20;;
727;SDS011;347;48.780;9.158;2023-04-28T04:03:50;13.83;;;13.13;;
727;SDS011;347;48.780;9.158;2023-04-28T04:06:16;11.60;;;11.10;;
727;SDS011;347;48.780;9.158;2023-04-28T04:08:42;12.60;;;11.70;;
727;SDS011;347;48.780;9.158;2023-04-28T04:11:08;12.10;;;11.50;;
727;SDS011;347;48.780;9.158;2023-04-28T04:13:33;12.20;;;11.30;;
727;SDS011;347;48.780;9.158;2023-04-28T04:15:59;12.00;;;11.20;;
727;SDS011;347;48.780;9.158;2023-04-28T04:18:25;11.60;;;10.90;;
727;SDS011;347;48.780;9.158;2023-04-28T04:20:51;11.93;;;11.23;;
727;SDS011;347;48.780;9.158;2023-04-28T04:23:21;12.40;;;11.60;;
727;SDS011;347;48.780;9.158;2023-04-28T04:25:47;11.53;;;11.00;;
727;SDS011;347;48.780;9.158;2023-04-28T04:28:13;12.40;;;11.70;;
727;SDS011;347;48.780;9.158;2023-04-28T04:30:38;13.00;;;12.00;;
727;SDS011;347;48.780;9.158;2023-04-28T04:33:04;13.33;;;12.43;;
727;SDS011;347;48.780;9.158;2023-04-28T04:35:30;12.23;;;11.63;;
727;SDS011;347;48.780;9.158;2023-04-28T04:37:55;20.57;;;18.37;;
727;SDS011;347;48.780;9.158;2023-04-28T04:40:21;15.90;;;14.60;;
727;SDS011;347;48.780;9.158;2023-04-28T04:42:47;12.13;;;11.53;;
727;SDS011;347;48.780;9.158;2023-04-28T04:45:12;12.37;;;11.70;;
727;SDS011;347;48.780;9.158;2023-04-28T04:47:39;12.63;;;11.90;;
727;SDS011;347;48.780;9.158;2023-04-28T04:50:05;12.60;;;11.90;;
727;SDS011;347;48.780;9.158;2023-04-28T04:52:31;12.40;;;11.80;;
727;SDS011;347;48.780;9.158;2023-04-28T04:54:56;13.60;;;12.73;;
727;SDS011;347;48.780;9.158;2023-04-28T04:57:22;11.93;;;11.13;;
727;SDS011;347;48.780;9.158;2023-04-28T04:59:48;12.63;;;11.90;;
727;SDS011;347;48.780;9.158;2023-04-28T05:02:13;13.77;;;12.67;;
727;SDS011;347;48.780;9.158;2023-04-28T05:04:39;12.90;;;12.10;;
727;SDS011;347;48.780;9.158;2023-04-28T05:07:04;12.00;;;11.40;;
727;SDS011;347;48.780;9.158;2023-04-28T05:09:31;13.57;;;12.57;;
727;SDS011;347;48.780;9.158;2023-04-28T05:11:57;11.30;;;10.80;;
727;SDS011;347;48.780;9.158;2023-04-28T05:14:23;11.50;;;11.00;;
727;SDS011;347;48.780;9.158;2023-04-28T05:16:49;11.67;;;11.20;;
727;SDS011;347;48.780;9.158;2023-04-28T05:19:15;12.73;;;11.93;;
727;SDS011;347;48.780;9.158;2023-04-28T05:21:41;13.30;;;12.50;;
727;SDS011;347;48.780;9.158;2023-04-28T05:24:06;13.80;;;13.27;;
727;SDS011;347;48.780;9.158;2023-04-28T05:26:32;13.60;;;12.80;;
727;SDS011;347;48.780;9.158;2023-04-28T05:28:58;15.50;;;14.50;;
727;SDS011;347;48.780;9.158;2023-04-28T05:31:23;13.57;;;12.77;;
727;SDS011;347;48.780;9.158;2023-04-28T05:33:49;14.07;;;13.03;;
727;SDS011;347;48.780;9.158;2023-04-28T05:36:15;12.30;;;11.70;;
727;SDS011;347;48.780;9.158;2023-04-28T05:38:42;12.63;;;12.07;;
727;SDS011;347;48.780;9.158;2023-04-28T05:41:08;11.90;;;11.30;;
727;SDS011;347;48.780;9.158;2023-04-28T05:43:33;13.10;;;12.20;;
727;SDS011;347;48.780;9.158;2023-04-28T05:46:00;13.10;;;12.40;;
727;SDS011;347;48.780;9.158;2023-04-28T05:48:25;12.30;;;11.60;;
727;SDS011;347;48.780;9.158;2023-04-28T05:50:51;12.80;;;12.10;;
727;SDS011;347;48.780;9.158;2023-04-28T05:53:17;11.40;;;10.80;;
727;SDS011;347;48.780;9.158;2023-04-28T05:55:42;14.00;;;13.20;;
727;SDS011;347;48.780;9.158;2023-04-28T05:58:08;12.67;;;11.77;;
727;SDS011;347;48.780;9.158;2023-04-28T06:00:34;12.90;;;12.20;;
727;SDS011;347;48.780;9.158;2023-04-28T06:02:59;12.93;;;12.13;;
727;SDS011;347;48.780;9.158;2023-04-28T06:05:25;13.27;;;12.43;;
727;SDS011;347;48.780;9.158;2023-04-28T06:07:51;12.73;;;12.13;;
727;SDS011;347;48.780;9.158;2023-04-28T06:10:18;13.03;;;12.33;;
727;SDS011;347;48.780;9.158;2023-04-28T06:12:45;14.20;;;13.17;;
727;SDS011;347;48.780;9.158;2023-04-28T06:15:11;11.83;;;11.23;;
727;SDS011;347;48.780;9.158;2023-04-28T06:17:37;11.13;;;10.63;;
727;SDS011;347;48.780;9.158;2023-04-28T06:20:03;11.00;;;10.50;;
727;SDS011;347;48.780;9.158;2023-04-28T06:22:30;11.77;;;11.17;;
727;SDS011;347;48.780;9.158;2023-04-28T06:24:56;13.33;;;12.33;;
727;SDS011;347;48.780;9.158;2023-04-28T06:27:21;12.53;;;11.83;;
727;SDS011;347;48.780;9.158;2023-04-28T06:29:47;10.60;;;10.10;;
727;SDS011;347;48.780;9.158;2023-04-28T06:32:13;11.30;;;10.77;;
727;SDS011;347;48.780;9.158;2023-04-28T06:34:38;11.50;;;10.87;;
727;SDS011;347;48.780;9.158;2023-04-28T06:37:04;10.33;;;9.73;;
727;SDS011;347;48.780;9.158;2023-04-28T06:39:30;10.47;;;9.97;;
727;SDS011;347;48.780;9.158;2023-04-28T06:41:56;11.20;;;10.60;;
727;SDS011;347;48.780;9.158;2023-04-28T06:44:21;9.63;;;9.13;;
727;SDS011;347;48.780;9.158;2023-04-28T06:46:47;11.87;;;11.07;;
727;SDS011;347;48.780;9.158;2023-04-28T06:49:13;11.30;;;10.77;;
727;SDS011;347;48.780;9.158;2023-04-28T06:51:38;12.53;;;11.47;;
727;SDS011;347;48.780;9.158;2023-04-28T06:54:04;12.00;;;11.37;;
727;SDS011;347;48.780;9.158;2023-04-28T06:56:30;12.20;;;11.60;;
727;SDS011;347;48.780;9.158;2023-04-28T06:58:56;11.43;;;10.50;;
727;SDS011;347;48.780;9.158;2023-04-28T07:01:23;11.60;;;10.93;;
727;SDS011;347;48.780;9.158;2023-04-28T07:03:49;11.83;;;11.10;;
727;SDS011;347;48.780;9.158;2023-04-28T07:06:14;11.73;;;11.17;;
727;SDS011;347;48.780;9.158;2023-04-28T07:08:42;12.40;;;11.27;;
727;SDS011;347;48.780;9.158;2023-04-28T07:11:08;11.63;;;10.87;;
727;SDS011;347;48.780;9.158;2023-04-28T07:13:33;13.07;;;12.23;;
727;SDS011;347;48.780;9.158;2023-04-28T07:15:59;11.80;;;11.20;;
727;SDS011;347;48.780;9.158;2023-04-28T07:18:25;11.93;;;11.23;;
727;SDS011;347;48.780;9.158;2023-04-28T07:20:51;11.43;;;11.00;;
727;SDS011;347;48.780;9.158;2023-04-28T07:23:16;11.30;;;10.80;;
727;SDS011;347;48.780;9.158;2023-04-28T07:25:42;11.90;;;11.30;;
727;SDS011;347;48.780;9.158;2023-04-28T07:28:08;12.20;;;11.50;;
727;SDS011;347;48.780;9.158;2023-04-28T07:30:34;11.27;;;10.77;;
727;SDS011;347;48.780;9.158;2023-04-28T07:33:00;11.70;;;11.03;;
727;SDS011;347;48.780;9.158;2023-04-28T07:35:26;11.87;;;11.20;;
727;SDS011;347;48.780;9.158;2023-04-28T07:37:52;12.13;;;11.53;;
727;SDS011;347;48.780;9.158;2023-04-28T07:40:19;11.27;;;10.57;;
727;SDS011;347;48.780;9.158;2023-04-28T07:42:45;12.00;;;11.40;;
727;SDS011;347;48.780;9.158;2023-04-28T07:45:11;12.03;;;11.43;;
727;SDS011;347;48.780;9.158;2023-04-28T07:47:38;12.13;;;11.43;;
727;SDS011;347;48.780;9.158;2023-04-28T07:50:04;11.17;;;10.67;;
727;SDS011;347;48.780;9.158;2023-04-28T07:52:31;11.00;;;10.50;;
727;SDS011;347;48.780;9.158;2023-04-28T07:54:57;10.50;;;10.07;;
727;SDS011;347;48.780;9.158;2023-04-28T07:57:23;11.83;;;11.23;;
727;SDS011;347;48.780;9.158;2023-04-28T07:59:49;10.13;;;9.53;;
727;SDS011;347;48.780;9.158;2023-04-28T08:02:14;10.53;;;10.03;;
727;SDS011;347;48.780;9.158;2023-04-28T08:04:40;10.83;;;10.27;;
727;SDS011;347;48.780;9.158;2023-04-28T08:07:07;10.80;;;10.10;;
727;SDS011;347;48.780;9.158;2023-04-28T08:09:33;10.40;;;9.77;;
727;SDS011;347;48.780;9.158;2023-04-28T08:11:59;10.77;;;10.17;;
727;SDS011;347;48.780;9.158;2023-04-28T08:14:25;11.00;;;10.40;;
727;SDS011;347;48.780;9.158;2023-04-28T08:16:51;9.93;;;9.37;;
727;SDS011;347;48.780;9.158;2023-04-28T08:19:17;9.23;;;8.83;;
727;SDS011;347;48.780;9.158;2023-04-28T08:21:43;8.70;;;8.30;;
727;SDS011;347;48.780;9.158;2023-04-28T08:24:09;9.27;;;8.67;;
727;SDS011;347;48.780;9.158;2023-04-28T08:26:35;9.60;;;9.07;;
727;SDS011;347;48.780;9.158;2023-04-28T08:29:02;9.90;;;9.30;;
727;SDS011;347;48.780;9.158;2023-04-28T08:31:28;8.77;;;8.40;;
727;SDS011;347;48.780;9.158;2023-04-28T08:33:54;9.17;;;8.77;;
727;SDS011;347;48.780;9.158;2023-04-28T08:36:19;10.73;;;10.13;;
727;SDS011;347;48.780;9.158;2023-04-28T08:38:45;11.00;;;10.40;;
727;SDS011;347;48.780;9.158;2023-04-28T08:41:15;12.50;;;11.70;;
727;SDS011;347;48.780;9.158;2023-04-28T08:43:41;12.10;;;11.30;;
727;SDS011;347;48.780;9.158;2023-04-28T08:46:08;12.20;;;11.60;;
727;SDS011;347;48.780;9.158;2023-04-28T08:48:41;11.50;;;10.93;;
727;SDS011;347;48.780;9.158;2023-04-28T08:51:12;12.60;;;11.90;;
727;SDS011;347;48.780;9.158;2023-04-28T08:53:42;11.97;;;11.27;;
727;SDS011;347;48.780;9.158;2023-04-28T08:56:13;12.47;;;11.87;;
727;SDS011;347;48.780;9.158;2023-04-28T08:58:42;12.13;;;11.40;;
727;SDS011;347;48.780;9.158;2023-04-28T09:01:08;12.30;;;11.70;;
727;SDS011;347;48.780;9.158;2023-04-28T09:03:33;13.00;;;12.20;;
727;SDS011;347;48.780;9.158;2023-04-28T09:06:00;12.67;;;11.87;;
727;SDS011;347;48.780;9.158;2023-04-28T09:08:26;13.00;;;12.10;;
727;SDS011;347;48.780;9.158;2023-04-28T09:11:08;15.00;;;14.10;;
727;SDS011;347;48.780;9.158;2023-04-28T09:13:36;14.77;;;13.87;;
727;SDS011;347;48.780;9.158;2023-04-28T09:16:04;15.40;;;14.33;;
727;SDS011;347;48.780;9.158;2023-04-28T09:18:30;15.57;;;14.57;;
727;SDS011;347;48.780;9.158;2023-04-28T09:21:09;18.20;;;16.90;;
727;SDS011;347;48.780;9.158;2023-04-28T09:23:46;13.67;;;12.77;;
727;SDS011;347;48.780;9.158;2023-04-28T09:26:16;14.67;;;13.67;;
727;SDS011;347;48.780;9.158;2023-04-28T09:28:42;15.00;;;13.57;;
727;SDS011;347;48.780;9.158;2023-04-28T09:31:23;14.10;;;13.30;;
727;SDS011;347;48.780;9.158;2023-04-28T09:33:58;14.80;;;13.57;;
727;SDS011;347;48.780;9.158;2023-04-28T09:36:28;14.13;;;13.33;;
727;SDS011;347;48.780;9.158;2023-04-28T09:38:58;14.63;;;13.40;;
727;SDS011;347;48.780;9.158;2023-04-28T09:41:33;13.60;;;12.70;;
727;SDS011;347;48.780;9.158;2023-04-28T09:44:11;15.70;;;14.60;;
727;SDS011;347;48.780;9.158;2023-04-28T09:46:37;14.00;;;12.83;;
727;SDS011;347;48.780;9.158;2023-04-28T09:49:04;14.73;;;13.83;;
727;SDS011;347;48.780;9.158;2023-04-28T09:51:29;16.83;;;15.83;;
727;SDS011;347;48.780;9.158;2023-04-28T09:53:56;15.83;;;14.73;;
727;SDS011;347;48.780;9.158;2023-04-28T09:56:28;15.20;;;14.30;;
727;SDS011;347;48.780;9.158;2023-04-28T09:58:58;15.03;;;14.03;;
727;SDS011;347;48.780;9.158;2023-04-28T10:01:58;15.17;;;14.17;;
727;SDS011;347;48.780;9.158;2023-04-28T10:04:17;15.13;;;14.07;;
727;SDS011;347;48.780;9.158;2023-04-28T10:06:43;13.90;;;13.00;;
727;SDS011;347;48.780;9.158;2023-04-28T10:09:09;14.00;;;12.90;;
727;SDS011;347;48.780;9.158;2023-04-28T10:11:36;13.10;;;12.20;;
727;SDS011;347;48.780;9.158;2023-04-28T10:14:03;13.47;;;12.57;;
727;SDS011;347;48.780;9.158;2023-04-28T10:16:29;13.13;;;12.33;;
727;SDS011;347;48.780;9.158;2023-04-28T10:18:56;10.80;;;10.00;;
727;SDS011;347;48.780;9.158;2023-04-28T10:21:23;11.47;;;10.53;;
727;SDS011;347;48.780;9.158;2023-04-28T10:23:58;6.40;;;6.20;;
727;SDS011;347;48.780;9.158;2023-04-28T10:26:56;6.57;;;6.20;;
727;SDS011;347;48.780;9.158;2023-04-28T10:29:30;5.80;;;5.60;;
727;SDS011;347;48.780;9.158;2023-04-28T10:34:46;5.50;;;5.30;;
727;SDS011;347;48.780;9.158;2023-04-28T10:37:12;6.30;;;6.00;;
727;SDS011;347;48.780;9.158;2023-04-28T10:39:39;5.17;;;4.97;;
727;SDS011;347;48.780;9.158;2023-04-28T10:42:28;5.73;;;5.53;;
727;SDS011;347;48.780;9.158;2023-04-28T10:45:11;5.20;;;5.00;;
727;SDS011;347;48.780;9.158;2023-04-28T10:50:28;5.27;;;5.07;;
727;SDS011;347;48.780;9.158;2023-04-28T10:52:55;5.00;;;4.73;;
727;SDS011;347;48.780;9.158;2023-04-28T11:00:40;6.00;;;5.60;;
727;SDS011;347;48.780;9.158;2023-04-28T11:03:07;6.17;;;5.77;;
727;SDS011;347;48.780;9.158;2023-04-28T11:05:33;4.83;;;4.73;;
727;SDS011;347;48.780;9.158;2023-04-28T11:13:40;4.87;;;4.57;;
727;SDS011;347;48.780;9.158;2023-04-28T11:16:07;5.60;;;5.40;;
727;SDS011;347;48.780;9.158;2023-04-28T11:18:49;5.60;;;5.40;;
727;SDS011;347;48.780;9.158;2023-04-28T11:21:16;5.97;;;5.77;;
727;SDS011;347;48.780;9.158;2023-04-28T11:23:45;7.30;;;6.90;;
727;SDS011;347;48.780;9.158;2023-04-28T11:26:11;6.43;;;6.03;;
727;SDS011;347;48.780;9.158;2023-04-28T11:28:47;6.13;;;5.93;;
727;SDS011;347;48.780;9.158;2023-04-28T11:31:18;5.77;;;5.57;;
727;SDS011;347;48.780;9.158;2023-04-28T11:34:04;5.90;;;5.80;;
727;SDS011;347;48.780;9.158;2023-04-28T11:36:37;5.60;;;5.50;;
727;SDS011;347;48.780;9.158;2023-04-28T11:39:05;5.73;;;5.53;;
727;SDS011;347;48.780;9.158;2023-04-28T11:41:39;6.50;;;6.30;;
727;SDS011;347;48.780;9.158;2023-04-28T11:44:13;7.50;;;7.27;;
727;SDS011;347;48.780;9.158;2023-04-28T11:46:44;7.50;;;7.30;;
727;SDS011;347;48.780;9.158;2023-04-28T11:49:15;7.00;;;6.80;;
727;SDS011;347;48.780;9.158;2023-04-28T11:51:42;7.83;;;7.53;;
727;SDS011;347;48.780;9.158;2023-04-28T11:54:10;7.33;;;7.13;;
727;SDS011;347;48.780;9.158;2023-04-28T11:56:38;7.80;;;7.60;;
727;SDS011;347;48.780;9.158;2023-04-28T11:59:09;7.80;;;7.60;;
727;SDS011;347;48.780;9.158;2023-04-28T12:01:45;8.20;;;8.00;;
727;SDS011;347;48.780;9.158;2023-04-28T12:04:29;7.60;;;7.40;;
727;SDS011;347;48.780;9.158;2023-04-28T12:09:30;9.20;;;9.00;;
727;SDS011;347;48.780;9.158;2023-04-28T12:12:00;8.57;;;8.37;;
727;SDS011;347;48.780;9.158;2023-04-28T12:14:28;8.93;;;8.67;;
727;SDS011;347;48.780;9.158;2023-04-28T12:16:57;8.80;;;8.50;;
727;SDS011;347;48.780;9.158;2023-04-28T12:19:22;8.83;;;8.53;;
727;SDS011;347;48.780;9.158;2023-04-28T12:22:06;8.57;;;8.37;;
727;SDS011;347;48.780;9.158;2023-04-28T12:24:32;7.40;;;7.20;;
727;SDS011;347;48.780;9.158;2023-04-28T12:27:12;8.60;;;8.30;;
727;SDS011;347;48.780;9.158;2023-04-28T12:29:42;9.30;;;9.00;;
727;SDS011;347;48.780;9.158;2023-04-28T12:32:10;8.60;;;8.40;;
727;SDS011;347;48.780;9.158;2023-04-28T12:34:37;8.43;;;8.23;;
727;SDS011;347;48.780;9.158;2023-04-28T12:37:04;9.10;;;8.60;;
727;SDS011;347;48.780;9.158;2023-04-28T12:39:30;8.67;;;8.47;;
727;SDS011;347;48.780;9.158;2023-04-28T12:41:58;8.13;;;7.93;;
727;SDS011;347;48.780;9.158;2023-04-28T12:44:24;8.30;;;8.00;;
727;SDS011;347;48.780;9.158;2023-04-28T12:46:52;8.97;;;8.17;;
727;SDS011;347;48.780;9.158;2023-04-28T12:49:18;9.13;;;8.70;;
727;SDS011;347;48.780;9.158;2023-04-28T12:51:43;8.60;;;8.40;;
727;SDS011;347;48.780;9.158;2023-04-28T12:54:09;9.00;;;8.60;;
727;SDS011;347;48.780;9.158;2023-04-28T12:56:35;8.27;;;8.07;;
727;SDS011;347;48.780;9.158;2023-04-28T12:59:00;8.43;;;8.13;;
727;SDS011;347;48.780;9.158;2023-04-28T13:01:30;7.80;;;7.60;;
727;SDS011;347;48.780;9.158;2023-04-28T13:03:56;8.10;;;7.60;;
727;SDS011;347;48.780;9.158;2023-04-28T13:06:21;7.57;;;7.13;;
727;SDS011;347;48.780;9.158;2023-04-28T13:08:47;7.40;;;7.20;;
727;SDS011;347;48.780;9.158;2023-04-28T13:11:13;7.37;;;7.07;;
727;SDS011;347;48.780;9.158;2023-04-28T13:13:38;6.80;;;6.60;;
727;SDS011;347;48.780;9.158;2023-04-28T13:16:05;7.50;;;7.20;;
727;SDS011;347;48.780;9.158;2023-04-28T13:18:30;6.97;;;6.77;;
727;SDS011;347;48.780;9.158;2023-04-28T13:20:56;7.73;;;7.53;;
727;SDS011;347;48.780;9.158;2023-04-28T13:23:22;8.07;;;7.77;;
727;SDS011;347;48.780;9.158;2023-04-28T13:25:49;8.47;;;8.07;;
727;SDS011;347;48.780;9.158;2023-04-28T13:28:15;7.77;;;7.57;;
727;SDS011;347;48.780;9.158;2023-04-28T13:30:40;7.30;;;7.10;;
727;SDS011;347;48.780;9.158;2023-04-28T13:33:06;7.23;;;7.00;;
727;SDS011;347;48.780;9.158;2023-04-28T13:35:32;6.80;;;6.60;;
727;SDS011;347;48.780;9.158;2023-04-28T13:37:57;7.60;;;7.13;;
727;SDS011;347;48.780;9.158;2023-04-28T13:40:26;8.33;;;7.00;;
727;SDS011;347;48.780;9.158;2023-04-28T13:42:52;7.63;;;7.43;;
727;SDS011;347;48.780;9.158;2023-04-28T13:45:18;7.60;;;7.30;;
727;SDS011;347;48.780;9.158;2023-04-28T13:47:45;8.60;;;8.30;;
727;SDS011;347;48.780;9.158;2023-04-28T13:50:12;8.60;;;8.30;;
727;SDS011;347;48.780;9.158;2023-04-28T13:52:38;8.00;;;7.80;;
727;SDS011;347;48.780;9.158;2023-04-28T13:55:04;8.20;;;7.90;;
727;SDS011;347;48.780;9.158;2023-04-28T13:57:30;9.63;;;9.23;;
727;SDS011;347;48.780;9.158;2023-04-28T13:59:56;8.53;;;8.23;;
727;SDS011;347;48.780;9.158;2023-04-28T14:02:21;7.87;;;7.60;;
727;SDS011;347;48.780;9.158;2023-04-28T14:04:47;7.40;;;7.20;;
727;SDS011;347;48.780;9.158;2023-04-28T14:07:14;7.50;;;7.13;;
727;SDS011;347;48.780;9.158;2023-04-28T14:09:40;7.10;;;6.90;;
727;SDS011;347;48.780;9.158;2023-04-28T14:12:05;9.30;;;8.90;;
727;SDS011;347;48.780;9.158;2023-04-28T14:14:32;8.33;;;7.50;;
727;SDS011;347;48.780;9.158;2023-04-28T14:16:57;8.33;;;7.63;;
727;SDS011;347;48.780;9.158;2023-04-28T14:19:23;7.77;;;7.47;;
727;SDS011;347;48.780;9.158;2023-04-28T14:21:51;7.57;;;7.17;;
727;SDS011;347;48.780;9.158;2023-04-28T14:24:17;6.60;;;6.20;;
727;SDS011;347;48.780;9.158;2023-04-28T14:26:44;6.10;;;5.80;;
727;SDS011;347;48.780;9.158;2023-04-28T14:29:10;7.60;;;7.30;;
727;SDS011;347;48.780;9.158;2023-04-28T14:31:36;7.20;;;6.80;;
727;SDS011;347;48.780;9.158;2023-04-28T14:34:02;7.20;;;6.90;;
727;SDS011;347;48.780;9.158;2023-04-28T14:36:29;8.03;;;7.57;;
727;SDS011;347;48.780;9.158;2023-04-28T14:38:56;7.37;;;7.07;;
727;SDS011;347;48.780;9.158;2023-04-28T14:41:22;7.70;;;7.40;;
727;SDS011;347;48.780;9.158;2023-04-28T14:43:48;7.47;;;7.17;;
727;SDS011;347;48.780;9.158;2023-04-28T14:46:13;7.10;;;6.83;;
727;SDS011;347;48.780;9.158;2023-04-28T14:48:42;7.50;;;7.20;;
727;SDS011;347;48.780;9.158;2023-04-28T14:51:08;7.70;;;7.40;;
727;SDS011;347;48.780;9.158;2023-04-28T14:53:34;8.10;;;7.80;;
727;SDS011;347;48.780;9.158;2023-04-28T14:55:59;8.60;;;8.20;;
727;SDS011;347;48.780;9.158;2023-04-28T14:58:25;6.57;;;5.77;;
727;SDS011;347;48.780;9.158;2023-04-28T15:00:51;7.10;;;6.80;;
727;SDS011;347;48.780;9.158;2023-04-28T15:03:17;6.30;;;6.10;;
727;SDS011;347;48.780;9.158;2023-04-28T15:05:43;6.90;;;6.70;;
727;SDS011;347;48.780;9.158;2023-04-28T15:08:08;6.43;;;6.23;;
727;SDS011;347;48.780;9.158;2023-04-28T15:10:38;5.80;;;5.70;;
727;SDS011;347;48.780;9.158;2023-04-28T15:13:07;5.80;;;5.60;;
727;SDS011;347;48.780;9.158;2023-04-28T15:15:33;6.47;;;6.17;;
727;SDS011;347;48.780;9.158;2023-04-28T15:17:59;7.00;;;6.80;;
727;SDS011;347;48.780;9.158;2023-04-28T15:20:28;8.00;;;7.60;;
727;SDS011;347;48.780;9.158;2023-04-28T15:22:54;6.03;;;5.83;;
727;SDS011;347;48.780;9.158;2023-04-28T15:25:20;6.90;;;6.40;;
727;SDS011;347;48.780;9.158;2023-04-28T15:27:46;6.17;;;5.97;;
727;SDS011;347;48.780;9.158;2023-04-28T15:30:14;6.27;;;6.07;;
727;SDS011;347;48.780;9.158;2023-04-28T15:32:40;5.90;;;5.70;;
727;SDS011;347;48.780;9.158;2023-04-28T15:35:07;5.57;;;5.37;;
727;SDS011;347;48.780;9.158;2023-04-28T15:37:37;5.20;;;5.00;;
727;SDS011;347;48.780;9.158;2023-04-28T15:40:03;5.90;;;5.50;;
727;SDS011;347;48.780;9.158;2023-04-28T15:42:30;6.03;;;5.73;;
727;SDS011;347;48.780;9.158;2023-04-28T15:44:55;5.47;;;5.27;;